createdAt,value
2018-07-25T00:00:33.511Z,3.77
2018-07-25T00:03:02.666Z,4.00
2018-07-25T00:05:31.744Z,4.40
2018-07-25T00:08:00.848Z,3.87
2018-07-25T00:10:35.252Z,4.63
2018-07-25T00:13:04.343Z,4.37
2018-07-25T00:15:33.412Z,5.87
2018-07-25T00:18:02.520Z,4.97
2018-07-25T00:20:31.605Z,5.13
2018-07-25T00:23:00.728Z,5.70
2018-07-25T00:25:29.805Z,5.40
2018-07-25T00:27:58.921Z,6.70
2018-07-25T00:30:28.000Z,4.70
2018-07-25T00:32:57.100Z,4.70
2018-07-25T00:35:26.181Z,6.03
2018-07-25T00:37:55.340Z,5.27
2018-07-25T00:40:24.420Z,5.50
2018-07-25T00:42:53.684Z,5.70
2018-07-25T00:45:22.768Z,6.90
2018-07-25T00:47:51.891Z,7.57
2018-07-25T00:50:20.968Z,6.47
2018-07-25T00:52:50.064Z,5.97
2018-07-25T00:55:19.197Z,5.33
2018-07-25T00:57:48.284Z,6.03
2018-07-25T01:00:18.580Z,5.57
2018-07-25T01:02:48.408Z,4.90
2018-07-25T01:05:17.896Z,5.10
2018-07-25T01:07:47.237Z,5.43
2018-07-25T01:10:16.331Z,4.60
2018-07-25T01:12:45.441Z,4.17
2018-07-25T01:15:14.534Z,4.60
2018-07-25T01:17:43.639Z,5.27
2018-07-25T01:20:12.712Z,4.57
2018-07-25T01:22:41.880Z,4.70
2018-07-25T01:25:10.968Z,5.23
2018-07-25T01:27:40.067Z,4.53
2018-07-25T01:30:09.164Z,4.50
2018-07-25T01:32:38.233Z,4.77
2018-07-25T01:35:07.319Z,5.50
2018-07-25T01:37:36.420Z,5.50
2018-07-25T01:40:05.568Z,4.03
2018-07-25T01:42:34.636Z,4.63
2018-07-25T01:45:04.424Z,3.97
2018-07-25T01:47:33.514Z,4.73
2018-07-25T01:50:02.592Z,4.30
2018-07-25T01:52:31.668Z,4.63
2018-07-25T01:55:00.768Z,4.30
2018-07-25T01:57:29.864Z,4.77
2018-07-25T01:59:58.964Z,4.40
2018-07-25T02:02:28.062Z,4.63
2018-07-25T02:04:57.163Z,4.90
2018-07-25T02:07:26.256Z,4.80
2018-07-25T02:09:55.688Z,4.63
2018-07-25T02:12:24.768Z,5.10
2018-07-25T02:14:53.856Z,4.80
2018-07-25T02:17:22.937Z,3.80
2018-07-25T02:19:52.037Z,4.50
2018-07-25T02:22:21.115Z,4.23
2018-07-25T02:24:50.224Z,5.33
2018-07-25T02:27:19.332Z,4.30
2018-07-25T02:29:48.443Z,5.40
2018-07-25T02:32:17.525Z,4.77
2018-07-25T02:34:46.617Z,4.73
2018-07-25T02:37:15.697Z,5.47
2018-07-25T02:39:44.792Z,4.80
2018-07-25T02:42:13.880Z,4.97
2018-07-25T02:44:42.984Z,4.13
2018-07-25T02:47:12.448Z,5.50
2018-07-25T02:49:41.591Z,5.10
2018-07-25T02:52:10.717Z,5.20
2018-07-25T02:54:39.818Z,5.67
2018-07-25T02:57:08.893Z,5.10
2018-07-25T02:59:38.028Z,4.50
2018-07-25T03:02:07.120Z,4.37
2018-07-25T03:04:36.273Z,5.23
2018-07-25T03:07:05.812Z,5.70
2018-07-25T03:09:34.912Z,5.33
2018-07-25T03:12:03.993Z,5.27
2018-07-25T03:14:33.084Z,5.30
2018-07-25T03:17:02.166Z,5.13
2018-07-25T03:19:31.264Z,5.10
2018-07-25T03:22:00.368Z,5.10
2018-07-25T03:24:29.520Z,5.03
2018-07-25T03:26:58.617Z,4.93
2018-07-25T03:29:27.696Z,4.87
2018-07-25T03:31:56.787Z,4.40
2018-07-25T03:34:25.907Z,5.90
2018-07-25T03:36:54.976Z,5.33
2018-07-25T03:39:24.101Z,4.78
2018-07-25T03:41:53.200Z,4.92
2018-07-25T03:44:22.380Z,5.43
2018-07-25T03:46:51.562Z,4.50
2018-07-25T03:49:20.677Z,4.80
2018-07-25T03:51:49.748Z,4.90
2018-07-25T03:54:18.820Z,4.63
2018-07-25T03:56:47.913Z,4.97
2018-07-25T03:59:16.997Z,4.40
2018-07-25T04:01:46.173Z,5.23
2018-07-25T04:04:15.355Z,5.63
2018-07-25T04:06:44.473Z,4.90
2018-07-25T04:09:13.575Z,5.12
2018-07-25T04:11:42.688Z,5.43
2018-07-25T04:14:11.769Z,5.40
2018-07-25T04:16:40.892Z,5.40
2018-07-25T04:19:10.028Z,5.80
2018-07-25T04:21:39.172Z,5.50
2018-07-25T04:24:08.241Z,5.07
2018-07-25T04:26:37.388Z,4.75
2018-07-25T04:29:06.501Z,5.43
2018-07-25T04:31:35.611Z,5.10
2018-07-25T04:34:04.684Z,4.90
2018-07-25T04:36:33.784Z,4.65
2018-07-25T04:39:02.892Z,4.20
2018-07-25T04:41:31.989Z,5.10
2018-07-25T04:44:01.083Z,5.70
2018-07-25T04:46:30.245Z,4.93
2018-07-25T04:48:59.272Z,4.30
2018-07-25T04:51:28.388Z,5.50
2018-07-25T04:53:57.505Z,4.90
2018-07-25T04:56:26.622Z,5.20
2018-07-25T04:58:55.703Z,6.17
2018-07-25T05:01:24.809Z,4.43
2018-07-25T05:03:53.940Z,5.17
2018-07-25T05:06:23.029Z,5.20
2018-07-25T05:08:52.145Z,5.07
2018-07-25T05:11:21.221Z,4.60
2018-07-25T05:13:50.340Z,4.67
2018-07-25T05:16:19.412Z,4.83
2018-07-25T05:18:48.527Z,5.13
2018-07-25T05:21:17.619Z,4.92
2018-07-25T05:23:46.722Z,4.45
2018-07-25T05:26:15.857Z,5.10
2018-07-25T05:28:44.952Z,4.50
2018-07-25T05:31:14.909Z,5.78
2018-07-25T05:33:44.047Z,5.30
2018-07-25T05:36:13.119Z,5.40
2018-07-25T05:38:42.209Z,5.47
2018-07-25T05:41:11.644Z,5.50
2018-07-25T05:43:40.738Z,6.03
2018-07-25T05:46:09.837Z,5.07
2018-07-25T05:48:38.969Z,5.83
2018-07-25T05:51:08.040Z,4.93
2018-07-25T05:53:37.147Z,6.67
2018-07-25T05:56:06.241Z,6.10
2018-07-25T05:58:35.390Z,5.60
2018-07-25T06:01:04.431Z,4.77
2018-07-25T06:03:33.630Z,4.90
2018-07-25T06:06:02.706Z,5.30
2018-07-25T06:08:32.159Z,4.77
2018-07-25T06:11:01.280Z,4.20
2018-07-25T06:13:30.392Z,4.80
2018-07-25T06:15:59.533Z,4.23
2018-07-25T06:18:28.613Z,4.13
2018-07-25T06:20:58.216Z,4.07
2018-07-25T06:23:27.663Z,4.17
2018-07-25T06:25:56.843Z,4.20
2018-07-25T06:28:25.872Z,4.50
2018-07-25T06:30:54.972Z,3.77
2018-07-25T06:33:24.819Z,4.12
2018-07-25T06:35:53.933Z,4.20
2018-07-25T06:38:23.025Z,3.77
2018-07-25T06:40:52.152Z,4.10
2018-07-25T06:43:21.301Z,3.97
2018-07-25T06:45:50.357Z,4.20
2018-07-25T06:48:19.465Z,4.10
2018-07-25T06:50:48.668Z,3.47
2018-07-25T06:53:17.913Z,4.00
2018-07-25T06:55:47.016Z,4.27
2018-07-25T06:58:16.380Z,3.27
2018-07-25T07:00:46.656Z,3.70
2018-07-25T07:03:15.727Z,3.40
2018-07-25T07:05:45.183Z,3.70
2018-07-25T07:08:14.273Z,3.77
2018-07-25T07:10:43.388Z,3.37
2018-07-25T07:13:13.377Z,4.00
2018-07-25T07:15:42.488Z,4.20
2018-07-25T07:18:11.580Z,3.30
2018-07-25T07:20:40.731Z,3.33
2018-07-25T07:23:09.807Z,4.42
2018-07-25T07:25:39.055Z,3.10
2018-07-25T07:28:08.293Z,3.70
2018-07-25T07:30:37.368Z,4.17
2018-07-25T07:33:06.780Z,4.17
2018-07-25T07:35:35.887Z,3.23
2018-07-25T07:38:05.083Z,3.50
2018-07-25T07:40:34.221Z,2.77
2018-07-25T07:43:03.436Z,3.40
2018-07-25T07:45:32.555Z,2.90
2018-07-25T07:48:01.649Z,2.70
2018-07-25T07:50:30.752Z,3.65
2018-07-25T07:52:59.856Z,3.37
2018-07-25T07:55:29.028Z,3.73
2018-07-25T07:57:58.128Z,3.30
2018-07-25T08:00:27.212Z,2.80
2018-07-25T08:02:56.376Z,3.00
2018-07-25T08:05:25.508Z,3.00
2018-07-25T08:07:54.619Z,3.10
2018-07-25T08:10:23.719Z,2.80
2018-07-25T08:12:52.896Z,2.67
2018-07-25T08:15:21.972Z,3.12
2018-07-25T08:17:51.113Z,2.73
2018-07-25T08:20:20.156Z,3.10
2018-07-25T08:22:49.300Z,3.30
2018-07-25T08:25:18.385Z,3.20
2018-07-25T08:27:47.512Z,3.13
2018-07-25T08:30:16.582Z,3.00
2018-07-25T08:32:45.717Z,3.02
2018-07-25T08:35:14.844Z,3.03
2018-07-25T08:37:43.972Z,2.80
2018-07-25T08:40:13.207Z,2.80
2018-07-25T08:42:42.329Z,2.47
2018-07-25T08:45:11.453Z,2.90
2018-07-25T08:47:40.520Z,2.62
2018-07-25T08:50:10.280Z,3.37
2018-07-25T08:52:39.757Z,2.93
2018-07-25T08:55:08.821Z,2.63
2018-07-25T08:57:37.964Z,2.90
2018-07-25T09:00:07.391Z,3.10
2018-07-25T09:02:37.000Z,2.30
2018-07-25T09:05:06.173Z,2.75
2018-07-25T09:07:35.330Z,3.58
2018-07-25T09:10:04.648Z,2.60
2018-07-25T09:12:33.745Z,2.77
2018-07-25T09:15:02.843Z,3.40
2018-07-25T09:17:31.905Z,2.77
2018-07-25T09:20:01.056Z,2.60
2018-07-25T09:22:30.144Z,3.20
2018-07-25T09:24:59.399Z,2.45
2018-07-25T09:27:28.483Z,3.52
2018-07-25T09:29:57.636Z,3.10
2018-07-25T09:32:26.728Z,3.00
2018-07-25T09:34:55.828Z,2.95
2018-07-25T09:37:24.932Z,3.10
2018-07-25T09:39:54.593Z,2.67
2018-07-25T09:42:23.698Z,2.40
2018-07-25T09:44:52.879Z,2.50
2018-07-25T09:47:21.966Z,2.60
2018-07-25T09:49:51.122Z,2.60
2018-07-25T09:52:20.213Z,3.02
2018-07-25T09:54:49.324Z,2.87
2018-07-25T09:57:18.415Z,3.10
2018-07-25T09:59:48.187Z,3.20
2018-07-25T10:02:17.268Z,2.93
2018-07-25T10:04:47.540Z,3.60
2018-07-25T10:07:16.739Z,2.60
2018-07-25T10:09:45.726Z,2.80
2018-07-25T10:12:14.828Z,2.37
2018-07-25T10:14:43.952Z,3.10
2018-07-25T10:17:13.039Z,2.53
2018-07-25T10:19:42.189Z,2.87
2018-07-25T10:22:11.327Z,2.98
2018-07-25T10:24:40.390Z,2.65
2018-07-25T10:27:09.691Z,2.93
2018-07-25T10:29:38.753Z,2.40
2018-07-25T10:32:08.186Z,3.27
2018-07-25T10:34:37.327Z,2.80
2018-07-25T10:37:06.834Z,2.50
2018-07-25T10:39:35.929Z,2.40
2018-07-25T10:42:05.065Z,2.95
2018-07-25T10:44:34.157Z,2.80
2018-07-25T10:47:03.354Z,3.17
2018-07-25T10:49:32.473Z,2.60
2018-07-25T10:52:01.676Z,2.53
2018-07-25T10:54:32.163Z,2.60
2018-07-25T10:57:01.281Z,2.83
2018-07-25T10:59:30.402Z,3.30
2018-07-25T11:01:59.848Z,2.40
2018-07-25T11:04:28.980Z,2.90
2018-07-25T11:06:58.105Z,2.87
2018-07-25T11:09:27.280Z,3.00
2018-07-25T11:11:56.385Z,2.45
2018-07-25T11:14:25.489Z,2.90
2018-07-25T11:16:54.637Z,2.30
2018-07-25T11:19:23.758Z,3.40
2018-07-25T11:21:52.901Z,2.83
2018-07-25T11:24:22.055Z,2.62
2018-07-25T11:26:51.136Z,2.60
2018-07-25T11:29:20.236Z,2.90
2018-07-25T11:31:49.316Z,2.85
2018-07-25T11:34:18.444Z,2.45
2018-07-25T11:36:47.579Z,3.03
2018-07-25T11:39:16.680Z,2.70
2018-07-25T11:41:46.013Z,3.40
2018-07-25T11:44:15.120Z,3.17
2018-07-25T11:46:44.196Z,2.53
2018-07-25T11:49:13.352Z,2.57
2018-07-25T11:51:42.465Z,2.57
2018-07-25T11:54:11.572Z,2.75
2018-07-25T11:56:40.662Z,2.30
2018-07-25T11:59:09.776Z,2.73
2018-07-25T12:01:38.888Z,2.87
2018-07-25T12:04:08.026Z,3.00
2018-07-25T12:06:38.133Z,2.40
2018-07-25T12:09:09.084Z,3.03
2018-07-25T12:11:43.419Z,2.70
2018-07-25T12:14:12.945Z,2.90
2018-07-25T12:16:42.029Z,2.93
2018-07-25T12:19:11.184Z,2.33
2018-07-25T12:21:40.309Z,2.67
2018-07-25T12:24:09.432Z,2.57
2018-07-25T12:26:38.645Z,2.85
2018-07-25T12:29:07.731Z,2.57
2018-07-25T12:31:36.861Z,2.50
2018-07-25T12:34:05.955Z,2.80
2018-07-25T12:36:35.329Z,2.50
2018-07-25T12:39:06.549Z,2.90
2018-07-25T12:41:35.718Z,2.30
2018-07-25T12:44:04.788Z,2.97
2018-07-25T12:46:33.989Z,2.90
2018-07-25T12:49:03.224Z,2.62
2018-07-25T12:51:32.376Z,2.70
2018-07-25T12:54:02.300Z,2.80
2018-07-25T12:56:31.368Z,1.97
2018-07-25T12:59:00.465Z,2.65
2018-07-25T13:01:29.567Z,2.87
2018-07-25T13:03:58.680Z,2.70
2018-07-25T13:06:27.809Z,2.10
2018-07-25T13:08:56.928Z,2.50
2018-07-25T13:11:26.659Z,2.50
2018-07-25T13:13:56.144Z,2.97
2018-07-25T13:16:25.269Z,2.53
2018-07-25T13:18:54.483Z,2.67
2018-07-25T13:21:23.573Z,2.27
2018-07-25T13:23:52.685Z,2.13
2018-07-25T13:26:22.283Z,2.90
2018-07-25T13:28:51.704Z,2.40
2018-07-25T13:31:21.376Z,2.83
2018-07-25T13:33:50.514Z,2.60
2018-07-25T13:36:19.649Z,2.43
2018-07-25T13:38:48.876Z,2.62
2018-07-25T13:41:18.125Z,2.97
2018-07-25T13:43:47.288Z,2.83
2018-07-25T13:46:16.583Z,2.43
2018-07-25T13:48:45.530Z,2.12
2018-07-25T13:51:14.632Z,2.73
2018-07-25T13:53:43.757Z,2.30
2018-07-25T13:56:12.857Z,2.50
2018-07-25T13:58:41.972Z,2.50
2018-07-25T14:01:11.052Z,2.17
2018-07-25T14:03:40.188Z,2.40
2018-07-25T14:06:09.284Z,2.50
2018-07-25T14:08:38.380Z,3.27
2018-07-25T14:11:07.655Z,2.42
2018-07-25T14:13:36.761Z,2.60
2018-07-25T14:16:06.801Z,2.47
2018-07-25T14:18:35.945Z,2.80
2018-07-25T14:21:05.026Z,2.60
2018-07-25T14:23:34.190Z,2.83
2018-07-25T14:26:03.280Z,3.03
2018-07-25T14:28:32.388Z,2.45
2018-07-25T14:31:01.522Z,3.22
2018-07-25T14:33:30.595Z,2.93
2018-07-25T14:35:59.700Z,2.47
2018-07-25T14:38:28.780Z,2.73
2018-07-25T14:40:58.481Z,3.00
2018-07-25T14:43:27.580Z,2.23
2018-07-25T14:45:56.680Z,2.90
2018-07-25T14:48:25.752Z,3.10
2018-07-25T14:50:54.854Z,2.62
2018-07-25T14:53:23.952Z,2.37
2018-07-25T14:55:53.059Z,2.52
2018-07-25T14:58:22.164Z,2.77
2018-07-25T15:00:51.292Z,2.50
2018-07-25T15:03:20.380Z,2.97
2018-07-25T15:05:50.528Z,3.70
2018-07-25T15:08:19.618Z,2.47
2018-07-25T15:10:48.708Z,2.87
2018-07-25T15:13:17.797Z,2.80
2018-07-25T15:15:46.916Z,2.40
2018-07-25T15:18:15.999Z,2.90
2018-07-25T15:20:45.329Z,2.53
2018-07-25T15:23:21.852Z,2.90
2018-07-25T15:25:51.000Z,2.50
2018-07-25T15:28:20.137Z,2.22
2018-07-25T15:30:49.168Z,2.30
2018-07-25T15:33:18.274Z,2.70
2018-07-25T15:35:47.381Z,2.50
2018-07-25T15:38:16.608Z,3.40
2018-07-25T15:40:45.757Z,2.43
2018-07-25T15:43:14.899Z,2.50
2018-07-25T15:45:44.008Z,2.80
2018-07-25T15:48:13.185Z,2.60
2018-07-25T15:50:42.292Z,2.25
2018-07-25T15:53:11.460Z,2.53
2018-07-25T15:55:40.547Z,2.35
2018-07-25T15:58:09.644Z,2.30
2018-07-25T16:00:38.736Z,3.03
2018-07-25T16:03:08.145Z,2.40
2018-07-25T16:05:37.352Z,3.30
2018-07-25T16:08:06.476Z,2.60
2018-07-25T16:10:35.580Z,2.50
2018-07-25T16:13:04.980Z,2.63
2018-07-25T16:15:34.132Z,2.50
2018-07-25T16:18:03.236Z,3.10
2018-07-25T16:20:32.358Z,2.90
2018-07-25T16:23:01.494Z,2.80
2018-07-25T16:25:30.605Z,2.23
2018-07-25T16:27:59.772Z,2.60
2018-07-25T16:30:29.001Z,2.33
2018-07-25T16:32:58.150Z,2.60
2018-07-25T16:35:27.294Z,2.70
2018-07-25T16:37:56.937Z,2.83
2018-07-25T16:40:26.116Z,2.42
2018-07-25T16:42:55.265Z,2.60
2018-07-25T16:45:24.421Z,2.90
2018-07-25T16:47:53.596Z,3.50
2018-07-25T16:50:23.284Z,3.17
2018-07-25T16:52:52.869Z,3.10
2018-07-25T16:55:22.366Z,3.30
2018-07-25T16:57:51.472Z,3.57
2018-07-25T17:00:20.608Z,3.03
2018-07-25T17:02:49.740Z,3.37
2018-07-25T17:05:18.889Z,3.23
2018-07-25T17:07:47.981Z,2.57
2018-07-25T17:10:17.121Z,2.93
2018-07-25T17:12:46.235Z,3.13
2018-07-25T17:15:15.383Z,3.03
2018-07-25T17:17:44.529Z,4.10
2018-07-25T17:20:13.617Z,3.40
2018-07-25T17:22:42.725Z,3.80
2018-07-25T17:25:11.815Z,3.73
2018-07-25T17:27:40.959Z,3.67
2018-07-25T17:30:10.005Z,3.35
2018-07-25T17:32:39.116Z,2.93
2018-07-25T17:35:08.700Z,2.97
2018-07-25T17:37:37.832Z,3.00
2018-07-25T17:40:07.020Z,3.50
2018-07-25T17:42:36.480Z,3.70
2018-07-25T17:45:07.954Z,3.30
2018-07-25T17:47:37.096Z,3.80
2018-07-25T17:50:07.003Z,3.10
2018-07-25T17:52:36.236Z,3.90
2018-07-25T17:55:05.352Z,3.17
2018-07-25T17:57:34.473Z,3.98
2018-07-25T18:00:04.365Z,2.90
2018-07-25T18:02:33.485Z,3.20
2018-07-25T18:05:02.611Z,3.10
2018-07-25T18:07:31.732Z,2.93
2018-07-25T18:10:00.824Z,3.27
2018-07-25T18:12:29.950Z,3.70
2018-07-25T18:14:59.076Z,3.60
2018-07-25T18:17:28.208Z,2.95
2018-07-25T18:19:57.328Z,3.05
2018-07-25T18:22:26.477Z,3.30
2018-07-25T18:24:55.569Z,2.98
2018-07-25T18:27:24.671Z,3.10
2018-07-25T18:29:53.776Z,2.63
2018-07-25T18:32:22.896Z,3.00
2018-07-25T18:34:51.998Z,3.10
2018-07-25T18:37:21.172Z,3.63
2018-07-25T18:39:50.344Z,3.50
2018-07-25T18:42:19.475Z,2.87
2018-07-25T18:44:48.561Z,3.43
2018-07-25T18:47:17.670Z,3.00
2018-07-25T18:49:46.754Z,3.77
2018-07-25T18:52:15.885Z,3.40
2018-07-25T18:54:45.219Z,3.50
2018-07-25T18:57:14.520Z,3.30
2018-07-25T18:59:43.597Z,3.13
2018-07-25T19:02:12.708Z,3.83
2018-07-25T19:04:41.896Z,4.17
2018-07-25T19:07:11.039Z,3.60
2018-07-25T19:09:40.085Z,3.77
2018-07-25T19:12:09.209Z,3.63
2018-07-25T19:14:43.668Z,3.40
2018-07-25T19:17:12.798Z,3.90
2018-07-25T19:19:41.892Z,3.00
2018-07-25T19:22:10.996Z,3.30
2018-07-25T19:24:40.090Z,3.40
2018-07-25T19:27:09.200Z,3.80
2018-07-25T19:29:38.296Z,3.27
2018-07-25T19:32:08.288Z,3.45
2018-07-25T19:34:37.388Z,3.33
2018-07-25T19:37:06.520Z,3.50
2018-07-25T19:39:36.472Z,3.13
2018-07-25T19:42:06.952Z,3.37
2018-07-25T19:44:36.319Z,3.47
2018-07-25T19:47:05.868Z,3.43
2018-07-25T19:49:36.095Z,3.57
2018-07-25T19:52:05.184Z,3.63
2018-07-25T19:54:34.380Z,3.20
2018-07-25T19:57:03.534Z,3.03
2018-07-25T19:59:32.644Z,3.77
2018-07-25T20:02:01.842Z,3.60
2018-07-25T20:04:30.990Z,3.65
2018-07-25T20:07:00.128Z,4.00
2018-07-25T20:09:29.172Z,4.00
2018-07-25T20:11:58.280Z,3.70
2018-07-25T20:14:34.736Z,3.57
2018-07-25T20:17:03.895Z,3.93
2018-07-25T20:19:34.043Z,3.12
2018-07-25T20:22:03.133Z,3.80
2018-07-25T20:24:32.298Z,3.80
2018-07-25T20:27:01.376Z,3.50
2018-07-25T20:29:30.564Z,3.77
2018-07-25T20:31:59.662Z,3.75
2018-07-25T20:34:28.876Z,4.60
2018-07-25T20:36:57.991Z,4.40
2018-07-25T20:39:27.169Z,4.30
2018-07-25T20:41:56.261Z,4.25
2018-07-25T20:44:25.381Z,4.50
2018-07-25T20:46:55.161Z,3.90
2018-07-25T20:49:24.300Z,3.80
2018-07-25T20:51:53.404Z,4.50
2018-07-25T20:54:22.542Z,4.60
2018-07-25T20:56:51.636Z,4.67
2018-07-25T20:59:20.800Z,4.58
2018-07-25T21:01:49.893Z,4.70
2018-07-25T21:04:19.043Z,4.93
2018-07-25T21:06:48.132Z,5.37
2018-07-25T21:09:17.257Z,5.50
2018-07-25T21:11:46.356Z,4.37
2018-07-25T21:14:15.496Z,4.90
2018-07-25T21:16:44.606Z,4.70
2018-07-25T21:19:13.730Z,4.90
2018-07-25T21:21:42.887Z,5.17
2018-07-25T21:24:12.035Z,5.13
2018-07-25T21:26:41.137Z,5.07
2018-07-25T21:29:10.296Z,5.50
2018-07-25T21:31:39.399Z,5.40
2018-07-25T21:34:08.509Z,5.60
2018-07-25T21:36:37.626Z,5.70
2018-07-25T21:39:09.115Z,4.30
2018-07-25T21:41:38.265Z,4.77
2018-07-25T21:44:07.497Z,5.10
2018-07-25T21:46:36.656Z,4.97
2018-07-25T21:49:06.197Z,5.70
2018-07-25T21:51:35.344Z,4.67
2018-07-25T21:54:04.548Z,5.30
2018-07-25T21:56:33.672Z,5.03
2018-07-25T21:59:02.760Z,4.93
2018-07-25T22:01:31.828Z,5.90
2018-07-25T22:04:00.949Z,4.60
2018-07-25T22:06:30.068Z,5.43
2018-07-25T22:08:59.201Z,5.80
2018-07-25T22:11:28.256Z,5.07
2018-07-25T22:13:58.159Z,5.00
2018-07-25T22:16:27.848Z,5.40
2018-07-25T22:18:56.972Z,5.50
2018-07-25T22:21:26.045Z,4.77
2018-07-25T22:23:55.177Z,5.90
2018-07-25T22:26:24.297Z,4.80
2018-07-25T22:28:53.416Z,5.23
2018-07-25T22:31:22.528Z,5.40
2018-07-25T22:33:51.657Z,5.20
2018-07-25T22:36:20.769Z,5.63
2018-07-25T22:38:49.847Z,5.83
2018-07-25T22:41:18.943Z,4.97
2018-07-25T22:43:48.037Z,6.00
2018-07-25T22:46:17.130Z,5.47
2018-07-25T22:48:46.202Z,5.60
2018-07-25T22:51:15.318Z,5.70
2018-07-25T22:53:44.408Z,6.03
2018-07-25T22:56:13.508Z,5.63
2018-07-25T22:58:42.608Z,6.23
2018-07-25T23:01:11.712Z,5.53
2018-07-25T23:03:40.810Z,6.03
2018-07-25T23:06:09.908Z,5.70
2018-07-25T23:08:38.993Z,6.30
2018-07-25T23:11:08.200Z,5.53
2018-07-25T23:13:37.320Z,5.70
2018-07-25T23:16:06.431Z,6.00
2018-07-25T23:18:35.573Z,6.17
2018-07-25T23:21:04.678Z,6.33
2018-07-25T23:23:33.788Z,6.37
2018-07-25T23:26:02.925Z,6.20
2018-07-25T23:28:32.128Z,5.67
2018-07-25T23:31:01.255Z,6.30
2018-07-25T23:33:30.360Z,6.20
2018-07-25T23:35:59.472Z,5.90
2018-07-25T23:38:28.573Z,6.87
2018-07-25T23:40:57.680Z,6.70
2018-07-25T23:43:26.783Z,6.00
2018-07-25T23:45:55.932Z,6.03
2018-07-25T23:48:25.028Z,6.27
2018-07-25T23:50:54.164Z,6.13
2018-07-25T23:53:23.479Z,6.73
2018-07-25T23:55:52.613Z,6.70
2018-07-25T23:58:21.712Z,6.70
